createdAt,value
2022-12-05T00:00:15.522Z,24.30
2022-12-05T00:01:15.627Z,24.10
2022-12-05T00:02:15.596Z,24.40
2022-12-05T00:03:15.698Z,23.50
2022-12-05T00:04:16.180Z,23.60
2022-12-05T00:05:15.462Z,23.90
2022-12-05T00:06:15.534Z,23.30
2022-12-05T00:07:15.468Z,23.70
2022-12-05T00:08:15.501Z,24.20
2022-12-05T00:09:15.426Z,23.90
2022-12-05T00:10:15.417Z,23.10
2022-12-05T00:11:16.102Z,24.30
2022-12-05T00:12:15.418Z,24.50
2022-12-05T00:13:15.377Z,23.50
2022-12-05T00:14:15.376Z,23.70
2022-12-05T00:15:15.419Z,25.10
2022-12-05T00:16:16.163Z,24.30
2022-12-05T00:17:15.422Z,23.40
2022-12-05T00:18:16.612Z,23.60
2022-12-05T00:19:15.324Z,23.90
2022-12-05T00:20:15.351Z,23.50
2022-12-05T00:21:15.308Z,23.40
2022-12-05T00:22:15.311Z,22.20
2022-12-05T00:23:15.315Z,25.40
2022-12-05T00:24:15.300Z,23.80
2022-12-05T00:25:15.278Z,24.50
2022-12-05T00:26:15.271Z,24.40
2022-12-05T00:27:15.286Z,24.40
2022-12-05T00:28:15.276Z,25.70
2022-12-05T00:29:15.246Z,23.80
2022-12-05T00:30:15.324Z,24.90
2022-12-05T00:31:15.248Z,24.60
2022-12-05T00:32:15.754Z,24.20
2022-12-05T00:33:15.158Z,24.10
2022-12-05T00:34:15.163Z,22.70
2022-12-05T00:35:16.087Z,23.20
2022-12-05T00:36:15.135Z,23.80
2022-12-05T00:37:15.219Z,23.40
2022-12-05T00:38:15.111Z,22.90
2022-12-05T00:39:15.163Z,23.60
2022-12-05T00:40:16.092Z,24.30
2022-12-05T00:41:15.272Z,24.50
2022-12-05T00:42:15.292Z,23.90
2022-12-05T00:43:15.065Z,24.10
2022-12-05T00:44:15.379Z,24.20
2022-12-05T00:45:15.599Z,24.10
2022-12-05T00:46:15.084Z,24.40
2022-12-05T00:47:15.220Z,24.20
2022-12-05T00:48:15.024Z,24.00
2022-12-05T00:49:15.220Z,24.20
2022-12-05T00:50:15.988Z,23.90
2022-12-05T00:51:14.996Z,24.60
2022-12-05T00:52:15.019Z,23.90
2022-12-05T00:53:14.954Z,24.20
2022-12-05T00:54:14.980Z,22.90
2022-12-05T00:55:14.926Z,23.00
2022-12-05T00:56:14.914Z,23.60
2022-12-05T00:57:15.576Z,23.10
2022-12-05T00:58:15.901Z,22.90
2022-12-05T00:59:16.132Z,23.30
2022-12-05T01:00:14.933Z,22.90
2022-12-05T01:01:15.045Z,22.30
2022-12-05T01:02:14.849Z,23.00
2022-12-05T01:03:14.989Z,22.30
2022-12-05T01:04:14.847Z,23.40
2022-12-05T01:05:14.869Z,22.50
2022-12-05T01:06:14.806Z,23.40
2022-12-05T01:07:14.797Z,23.10
2022-12-05T01:08:14.880Z,22.70
2022-12-05T01:09:14.781Z,22.50
2022-12-05T01:10:14.767Z,22.20
2022-12-05T01:11:14.779Z,22.60
2022-12-05T01:12:14.769Z,22.70
2022-12-05T01:13:14.789Z,22.70
2022-12-05T01:14:14.725Z,22.70
2022-12-05T01:15:14.741Z,22.10
2022-12-05T01:16:14.975Z,21.30
2022-12-05T01:17:14.708Z,22.10
2022-12-05T01:18:14.707Z,23.00
2022-12-05T01:19:14.782Z,22.90
2022-12-05T01:20:14.678Z,23.20
2022-12-05T01:21:15.734Z,22.80
2022-12-05T01:22:14.658Z,21.90
2022-12-05T01:23:15.053Z,21.80
2022-12-05T01:24:14.647Z,22.50
2022-12-05T01:25:14.605Z,21.90
2022-12-05T01:26:16.102Z,22.40
2022-12-05T01:27:14.634Z,22.00
2022-12-05T01:28:14.674Z,22.20
2022-12-05T01:29:14.616Z,23.00
2022-12-05T01:30:14.585Z,21.60
2022-12-05T01:31:14.541Z,21.90
2022-12-05T01:32:14.778Z,22.30
2022-12-05T01:33:14.537Z,22.00
2022-12-05T01:34:15.465Z,24.00
2022-12-05T01:35:14.519Z,24.60
2022-12-05T01:36:14.520Z,23.00
2022-12-05T01:37:15.095Z,22.30
2022-12-05T01:38:15.094Z,22.20
2022-12-05T01:39:16.098Z,22.60
2022-12-05T01:40:14.472Z,22.10
2022-12-05T01:41:14.821Z,21.20
2022-12-05T01:42:14.462Z,21.70
2022-12-05T01:43:14.423Z,22.60
2022-12-05T01:44:15.599Z,22.20
2022-12-05T01:45:14.455Z,22.20
2022-12-05T01:46:14.526Z,22.20
2022-12-05T01:47:14.360Z,22.00
2022-12-05T01:48:14.384Z,23.00
2022-12-05T01:49:16.017Z,22.50
2022-12-05T01:50:14.359Z,22.10
2022-12-05T01:51:14.387Z,20.90
2022-12-05T01:52:14.345Z,21.30
2022-12-05T01:53:14.355Z,21.10
2022-12-05T01:54:14.331Z,21.60
2022-12-05T01:55:14.348Z,21.90
2022-12-05T01:56:14.339Z,21.90
2022-12-05T01:57:14.267Z,22.30
2022-12-05T01:58:14.360Z,22.20
2022-12-05T01:59:14.255Z,21.90
2022-12-05T02:00:14.240Z,21.90
2022-12-05T02:01:14.466Z,22.00
2022-12-05T02:02:14.226Z,21.90
2022-12-05T02:03:14.289Z,22.10
2022-12-05T02:04:14.249Z,22.00
2022-12-05T02:05:14.285Z,21.20
2022-12-05T02:06:15.074Z,22.80
2022-12-05T02:07:14.148Z,22.00
2022-12-05T02:08:15.008Z,21.30
2022-12-05T02:09:14.143Z,22.10
2022-12-05T02:10:14.168Z,21.80
2022-12-05T02:11:14.110Z,22.50
2022-12-05T02:12:14.113Z,22.10
2022-12-05T02:13:15.572Z,22.60
2022-12-05T02:14:15.069Z,22.40
2022-12-05T02:15:14.088Z,21.60
2022-12-05T02:16:14.136Z,22.50
2022-12-05T02:17:14.066Z,23.70
2022-12-05T02:18:14.083Z,23.30
2022-12-05T02:19:14.021Z,22.60
2022-12-05T02:20:14.065Z,22.90
2022-12-05T02:21:14.040Z,22.00
2022-12-05T02:22:14.055Z,22.70
2022-12-05T02:23:13.979Z,22.00
2022-12-05T02:24:14.496Z,22.70
2022-12-05T02:25:13.948Z,22.00
2022-12-05T02:26:13.961Z,21.60
2022-12-05T02:27:13.957Z,21.50
2022-12-05T02:28:13.997Z,22.60
2022-12-05T02:29:13.912Z,22.40
2022-12-05T02:30:13.953Z,22.00
2022-12-05T02:31:13.987Z,21.90
2022-12-05T02:32:13.962Z,22.70
2022-12-05T02:33:13.870Z,22.00
2022-12-05T02:34:13.866Z,22.00
2022-12-05T02:35:13.861Z,21.70
2022-12-05T02:36:14.074Z,22.20
2022-12-05T02:37:13.948Z,21.90
2022-12-05T02:38:13.919Z,22.40
2022-12-05T02:39:13.800Z,21.90
2022-12-05T02:40:13.890Z,22.10
2022-12-05T02:41:13.791Z,21.80
2022-12-05T02:42:13.766Z,21.70
2022-12-05T02:43:13.794Z,22.30
2022-12-05T02:44:13.766Z,22.10
2022-12-05T02:45:13.733Z,23.30
2022-12-05T02:46:14.030Z,23.00
2022-12-05T02:47:13.747Z,23.70
2022-12-05T02:48:13.746Z,23.10
2022-12-05T02:49:13.710Z,22.80
2022-12-05T02:50:14.747Z,23.50
2022-12-05T02:51:13.678Z,22.40
2022-12-05T02:52:14.726Z,22.60
2022-12-05T02:53:13.705Z,22.40
2022-12-05T02:54:16.018Z,23.30
2022-12-05T02:55:13.751Z,22.10
2022-12-05T02:56:14.662Z,22.50
2022-12-05T02:57:13.630Z,22.10
2022-12-05T02:58:14.699Z,21.90
2022-12-05T02:59:17.231Z,21.50
2022-12-05T03:00:14.661Z,21.60
2022-12-05T03:01:13.726Z,22.30
2022-12-05T03:02:13.775Z,22.00
2022-12-05T03:03:13.660Z,22.30
2022-12-05T03:04:13.601Z,22.40
2022-12-05T03:05:13.570Z,22.10
2022-12-05T03:06:14.273Z,22.40
2022-12-05T03:07:13.535Z,21.50
2022-12-05T03:08:13.629Z,22.10
2022-12-05T03:09:13.540Z,22.00
2022-12-05T03:10:13.527Z,21.30
2022-12-05T03:11:13.474Z,20.80
2022-12-05T03:12:13.500Z,21.20
2022-12-05T03:13:13.946Z,20.60
2022-12-05T03:14:13.431Z,21.40
2022-12-05T03:15:13.460Z,20.40
2022-12-05T03:16:14.135Z,21.10
2022-12-05T03:17:13.436Z,21.20
2022-12-05T03:18:13.407Z,21.30
2022-12-05T03:19:13.448Z,20.80
2022-12-05T03:20:13.383Z,21.00
2022-12-05T03:21:13.363Z,21.10
2022-12-05T03:22:13.395Z,21.30
2022-12-05T03:23:13.429Z,21.90
2022-12-05T03:24:13.341Z,21.00
2022-12-05T03:25:14.142Z,21.30
2022-12-05T03:26:13.972Z,20.90
2022-12-05T03:27:13.294Z,20.70
2022-12-05T03:28:13.320Z,21.30
2022-12-05T03:29:14.032Z,21.20
2022-12-05T03:30:14.003Z,21.40
2022-12-05T03:31:13.358Z,22.30
2022-12-05T03:32:14.145Z,21.40
2022-12-05T03:33:13.264Z,21.20
2022-12-05T03:34:13.992Z,21.30
2022-12-05T03:35:14.123Z,20.50
2022-12-05T03:36:13.198Z,21.00
2022-12-05T03:37:13.972Z,20.40
2022-12-05T03:38:13.184Z,20.50
2022-12-05T03:39:13.225Z,22.60
2022-12-05T03:40:16.157Z,20.30
2022-12-05T03:41:13.161Z,21.70
2022-12-05T03:42:13.177Z,20.60
2022-12-05T03:43:15.006Z,21.10
2022-12-05T03:44:13.157Z,21.50
2022-12-05T03:45:13.632Z,20.50
2022-12-05T03:46:13.229Z,20.70
2022-12-05T03:47:13.632Z,21.20
2022-12-05T03:48:13.117Z,20.90
2022-12-05T03:49:13.128Z,21.90
2022-12-05T03:50:13.072Z,21.80
2022-12-05T03:51:14.033Z,20.60
2022-12-05T03:52:13.065Z,21.60
2022-12-05T03:53:21.427Z,20.90
2022-12-05T03:54:15.990Z,21.00
2022-12-05T03:55:13.014Z,20.90
2022-12-05T03:56:14.005Z,20.70
2022-12-05T03:57:13.005Z,22.30
2022-12-05T03:58:13.590Z,20.60
2022-12-05T03:59:12.949Z,21.50
2022-12-05T04:00:12.975Z,21.20
2022-12-05T04:01:13.738Z,21.70
2022-12-05T04:02:13.004Z,20.80
2022-12-05T04:03:12.916Z,19.80
2022-12-05T04:04:13.970Z,21.00
2022-12-05T04:05:13.568Z,21.90
2022-12-05T04:06:13.603Z,21.30
2022-12-05T04:07:12.878Z,21.60
2022-12-05T04:08:12.963Z,21.00
2022-12-05T04:09:17.118Z,20.10
2022-12-05T04:10:13.671Z,20.80
2022-12-05T04:11:12.867Z,20.40
2022-12-05T04:12:13.527Z,20.60
2022-12-05T04:13:12.806Z,20.90
2022-12-05T04:14:13.998Z,21.10
2022-12-05T04:15:12.786Z,20.10
2022-12-05T04:16:13.655Z,19.70
2022-12-05T04:17:12.770Z,20.70
2022-12-05T04:18:12.738Z,20.60
2022-12-05T04:19:13.478Z,20.10
2022-12-05T04:20:12.807Z,20.80
2022-12-05T04:21:18.427Z,21.90
2022-12-05T04:22:12.733Z,21.20
2022-12-05T04:23:12.775Z,20.60
2022-12-05T04:24:15.429Z,21.70
2022-12-05T04:25:13.792Z,20.80
2022-12-05T04:26:13.586Z,20.70
2022-12-05T04:27:12.632Z,20.30
2022-12-05T04:28:16.711Z,20.00
2022-12-05T04:29:14.612Z,19.90
2022-12-05T04:30:14.478Z,19.90
2022-12-05T04:31:13.721Z,19.40
2022-12-05T04:32:12.591Z,20.60
2022-12-05T04:33:12.612Z,20.50
2022-12-05T04:34:12.572Z,19.90
2022-12-05T04:35:12.572Z,20.00
2022-12-05T04:36:12.547Z,20.00
2022-12-05T04:37:14.039Z,20.90
2022-12-05T04:38:12.526Z,20.90
2022-12-05T04:39:17.781Z,20.40
2022-12-05T04:40:14.542Z,18.90
2022-12-05T04:41:12.475Z,21.00
2022-12-05T04:42:13.532Z,19.70
2022-12-05T04:43:12.574Z,19.00
2022-12-05T04:44:13.088Z,19.30
2022-12-05T04:45:12.460Z,18.70
2022-12-05T04:46:13.094Z,19.80
2022-12-05T04:47:12.408Z,20.30
2022-12-05T04:48:12.981Z,19.50
2022-12-05T04:49:12.404Z,19.80
2022-12-05T04:50:13.028Z,20.50
2022-12-05T04:51:12.443Z,19.30
2022-12-05T04:52:12.375Z,19.50
2022-12-05T04:53:13.126Z,19.70
2022-12-05T04:54:12.348Z,19.70
2022-12-05T04:55:12.353Z,18.80
2022-12-05T04:56:12.353Z,20.40
2022-12-05T04:57:12.324Z,19.10
2022-12-05T04:58:12.384Z,19.80
2022-12-05T04:59:12.360Z,19.60
2022-12-05T05:00:12.270Z,19.90
2022-12-05T05:01:12.298Z,19.80
2022-12-05T05:02:13.974Z,20.60
2022-12-05T05:03:12.292Z,20.30
2022-12-05T05:04:13.935Z,20.50
2022-12-05T05:05:14.180Z,20.40
2022-12-05T05:06:13.244Z,20.30
2022-12-05T05:07:12.236Z,19.40
2022-12-05T05:08:13.000Z,19.80
2022-12-05T05:09:12.192Z,19.30
2022-12-05T05:10:12.172Z,19.60
2022-12-05T05:11:12.264Z,18.70
2022-12-05T05:12:17.231Z,21.00
2022-12-05T05:13:14.156Z,20.40
2022-12-05T05:14:12.271Z,18.60
2022-12-05T05:15:12.149Z,20.00
2022-12-05T05:16:12.296Z,20.20
2022-12-05T05:17:12.108Z,20.10
2022-12-05T05:18:12.120Z,20.00
2022-12-05T05:19:12.092Z,19.90
2022-12-05T05:20:16.896Z,20.00
2022-12-05T05:21:14.050Z,18.80
2022-12-05T05:22:12.134Z,19.20
2022-12-05T05:23:12.037Z,19.30
2022-12-05T05:24:12.086Z,19.20
2022-12-05T05:25:12.976Z,19.10
2022-12-05T05:26:12.026Z,18.40
2022-12-05T05:27:11.993Z,18.90
2022-12-05T05:28:11.989Z,19.70
2022-12-05T05:29:12.019Z,19.40
2022-12-05T05:30:11.990Z,17.90
2022-12-05T05:31:12.012Z,19.60
2022-12-05T05:32:11.943Z,20.10
2022-12-05T05:33:11.913Z,18.60
2022-12-05T05:34:11.929Z,19.50
2022-12-05T05:35:11.942Z,18.60
2022-12-05T05:36:11.906Z,19.80
2022-12-05T05:37:11.905Z,20.10
2022-12-05T05:38:12.042Z,19.80
2022-12-05T05:39:11.867Z,19.30
2022-12-05T05:40:11.857Z,18.20
2022-12-05T05:41:11.834Z,19.90
2022-12-05T05:42:11.861Z,18.30
2022-12-05T05:43:12.853Z,19.10
2022-12-05T05:44:11.821Z,19.70
2022-12-05T05:45:11.802Z,17.90
2022-12-05T05:46:12.624Z,20.50
2022-12-05T05:47:11.886Z,19.50
2022-12-05T05:48:11.901Z,19.30
2022-12-05T05:49:11.798Z,19.60
2022-12-05T05:50:16.336Z,18.80
2022-12-05T05:51:11.747Z,20.30
2022-12-05T05:52:11.727Z,20.70
2022-12-05T05:53:11.724Z,20.70
2022-12-05T05:54:11.745Z,19.70
2022-12-05T05:55:11.735Z,20.60
2022-12-05T05:56:14.000Z,20.60
2022-12-05T05:57:14.031Z,21.00
2022-12-05T05:58:12.666Z,20.20
2022-12-05T05:59:11.652Z,20.60
2022-12-05T06:00:11.650Z,20.70
2022-12-05T06:01:11.630Z,19.60
2022-12-05T06:02:11.943Z,19.40
2022-12-05T06:03:11.933Z,19.50
2022-12-05T06:04:11.732Z,19.00
2022-12-05T06:05:11.583Z,18.00
2022-12-05T06:06:12.544Z,19.30
2022-12-05T06:07:11.555Z,19.40
2022-12-05T06:08:11.637Z,20.10
2022-12-05T06:09:11.562Z,19.00
2022-12-05T06:10:11.529Z,18.90
2022-12-05T06:11:11.628Z,16.90
2022-12-05T06:12:11.633Z,21.00
2022-12-05T06:13:11.517Z,20.40
2022-12-05T06:14:11.600Z,19.60
2022-12-05T06:15:11.487Z,17.20
2022-12-05T06:16:11.578Z,18.20
2022-12-05T06:17:11.480Z,18.00
2022-12-05T06:18:11.436Z,19.60
2022-12-05T06:19:11.452Z,18.80
2022-12-05T06:20:11.463Z,20.40
2022-12-05T06:21:16.020Z,19.60
2022-12-05T06:22:12.523Z,20.00
2022-12-05T06:23:11.457Z,20.10
2022-12-05T06:24:11.502Z,19.20
2022-12-05T06:25:11.372Z,20.70
2022-12-05T06:26:11.445Z,20.00
2022-12-05T06:27:11.421Z,18.40
2022-12-05T06:28:11.365Z,18.80
2022-12-05T06:29:11.391Z,20.80
2022-12-05T06:30:11.425Z,19.00
2022-12-05T06:31:11.408Z,19.30
2022-12-05T06:32:11.337Z,18.70
2022-12-05T06:33:11.362Z,18.20
2022-12-05T06:34:11.273Z,19.90
2022-12-05T06:35:11.345Z,19.50
2022-12-05T06:36:11.347Z,21.40
2022-12-05T06:37:11.284Z,21.00
2022-12-05T06:38:11.317Z,18.40
2022-12-05T06:39:11.213Z,19.20
2022-12-05T06:40:11.364Z,20.80
2022-12-05T06:41:11.315Z,19.50
2022-12-05T06:42:11.324Z,21.00
2022-12-05T06:43:11.249Z,19.10
2022-12-05T06:44:11.237Z,18.80
2022-12-05T06:45:11.242Z,19.80
2022-12-05T06:46:11.265Z,20.20
2022-12-05T06:47:11.217Z,20.20
2022-12-05T06:48:12.039Z,19.40
2022-12-05T06:49:11.921Z,18.10
2022-12-05T06:50:11.190Z,19.50
2022-12-05T06:51:11.151Z,19.90
2022-12-05T06:52:11.129Z,18.70
2022-12-05T06:53:11.077Z,18.80
2022-12-05T06:54:11.178Z,18.70
2022-12-05T06:55:11.122Z,18.60
2022-12-05T06:56:12.058Z,17.60
2022-12-05T06:57:12.086Z,20.00
2022-12-05T06:58:11.046Z,18.70
2022-12-05T06:59:11.054Z,19.10
2022-12-05T07:00:10.984Z,18.30
2022-12-05T07:01:11.228Z,18.10
2022-12-05T07:02:11.138Z,18.60
2022-12-05T07:03:10.954Z,16.80
2022-12-05T07:04:11.168Z,17.20
2022-12-05T07:05:11.015Z,18.20
2022-12-05T07:06:11.699Z,18.60
2022-12-05T07:07:10.902Z,21.40
2022-12-05T07:08:12.920Z,21.50
2022-12-05T07:09:11.067Z,23.20
2022-12-05T07:10:10.990Z,25.40
2022-12-05T07:11:12.029Z,24.50
2022-12-05T07:12:10.939Z,27.10
2022-12-05T07:13:15.595Z,23.00
2022-12-05T07:14:24.887Z,23.70
2022-12-05T07:15:11.892Z,27.70
2022-12-05T07:16:11.937Z,23.60
2022-12-05T07:17:10.887Z,26.90
2022-12-05T07:18:11.003Z,23.70
2022-12-05T07:19:10.908Z,23.80
2022-12-05T07:20:10.816Z,24.40
2022-12-05T07:21:14.022Z,23.40
2022-12-05T07:22:15.683Z,24.60
2022-12-05T07:23:11.760Z,24.00
2022-12-05T07:24:10.807Z,23.80
2022-12-05T07:25:12.381Z,22.90
2022-12-05T07:26:10.833Z,23.60
2022-12-05T07:27:10.761Z,23.10
2022-12-05T07:28:10.901Z,22.50
2022-12-05T07:29:10.765Z,21.20
2022-12-05T07:30:10.724Z,18.70
2022-12-05T07:31:10.660Z,19.70
2022-12-05T07:32:10.780Z,20.90
2022-12-05T07:33:11.397Z,20.40
2022-12-05T07:34:10.744Z,19.30
2022-12-05T07:35:11.486Z,20.20
2022-12-05T07:36:10.743Z,19.50
2022-12-05T07:37:10.633Z,19.70
2022-12-05T07:38:10.565Z,20.50
2022-12-05T07:39:10.588Z,17.30
2022-12-05T07:40:10.576Z,18.20
2022-12-05T07:41:13.489Z,17.60
2022-12-05T07:42:11.726Z,17.60
2022-12-05T07:43:10.605Z,17.70
2022-12-05T07:44:10.545Z,18.20
2022-12-05T07:45:11.417Z,17.90
2022-12-05T07:46:11.155Z,17.80
2022-12-05T07:47:10.553Z,16.00
2022-12-05T07:48:13.334Z,17.00
2022-12-05T07:49:12.565Z,18.20
2022-12-05T07:50:10.657Z,17.10
2022-12-05T07:51:10.704Z,17.50
2022-12-05T07:52:10.497Z,17.70
2022-12-05T07:53:10.425Z,21.20
2022-12-05T07:54:10.558Z,18.80
2022-12-05T07:55:11.932Z,18.10
2022-12-05T07:56:12.967Z,16.40
2022-12-05T07:57:10.441Z,17.30
2022-12-05T07:58:10.461Z,16.30
2022-12-05T07:59:10.416Z,18.50
2022-12-05T08:00:10.501Z,19.70
2022-12-05T08:01:10.613Z,20.60
2022-12-05T08:02:10.420Z,19.40
2022-12-05T08:03:11.914Z,22.80
2022-12-05T08:04:15.094Z,19.60
2022-12-05T08:05:13.907Z,17.80
2022-12-05T08:06:11.034Z,18.10
2022-12-05T08:07:10.325Z,18.00
2022-12-05T08:08:11.168Z,17.60
2022-12-05T08:09:10.285Z,19.50
2022-12-05T08:10:11.975Z,19.60
2022-12-05T08:11:10.968Z,18.70
2022-12-05T08:12:10.285Z,19.70
2022-12-05T08:13:10.322Z,21.40
2022-12-05T08:14:10.259Z,21.00
2022-12-05T08:15:10.298Z,20.00
2022-12-05T08:16:10.315Z,20.00
2022-12-05T08:17:10.292Z,22.00
2022-12-05T08:18:10.143Z,19.40
2022-12-05T08:19:10.169Z,19.20
2022-12-05T08:20:10.135Z,18.90
2022-12-05T08:21:10.138Z,18.90
2022-12-05T08:22:10.124Z,19.70
2022-12-05T08:23:10.097Z,18.00
2022-12-05T08:24:11.078Z,18.30
2022-12-05T08:25:10.274Z,19.50
2022-12-05T08:26:10.203Z,20.00
2022-12-05T08:27:10.126Z,19.00
2022-12-05T08:28:10.111Z,19.50
2022-12-05T08:29:10.020Z,20.70
2022-12-05T08:30:10.020Z,19.50
2022-12-05T08:31:10.147Z,19.10
2022-12-05T08:32:10.090Z,18.10
2022-12-05T08:33:10.903Z,20.70
2022-12-05T08:34:09.970Z,23.20
2022-12-05T08:35:09.979Z,21.50
2022-12-05T08:36:09.952Z,19.50
2022-12-05T08:37:10.063Z,20.30
2022-12-05T08:38:09.996Z,21.20
2022-12-05T08:39:09.971Z,22.40
2022-12-05T08:40:10.443Z,20.40
2022-12-05T08:41:09.986Z,21.70
2022-12-05T08:42:10.139Z,19.10
2022-12-05T08:43:10.483Z,20.50
2022-12-05T08:44:09.916Z,20.10
2022-12-05T08:45:09.858Z,19.80
2022-12-05T08:46:10.000Z,20.20
2022-12-05T08:47:09.880Z,21.20
2022-12-05T08:48:09.855Z,20.50
2022-12-05T08:49:10.511Z,20.50
2022-12-05T08:50:09.783Z,20.00
2022-12-05T08:51:09.798Z,20.50
2022-12-05T08:52:09.800Z,21.70
2022-12-05T08:53:09.773Z,21.20
2022-12-05T08:54:09.799Z,19.80
2022-12-05T08:55:09.726Z,20.80
2022-12-05T08:56:09.736Z,23.90
2022-12-05T08:57:09.731Z,21.30
2022-12-05T08:58:09.711Z,20.50
2022-12-05T08:59:09.703Z,19.20
2022-12-05T09:00:09.697Z,22.30
2022-12-05T09:01:09.736Z,22.40
2022-12-05T09:02:09.710Z,22.20
2022-12-05T09:03:09.686Z,21.10
2022-12-05T09:04:09.662Z,23.20
2022-12-05T09:05:26.901Z,24.40
2022-12-05T09:06:11.620Z,22.60
2022-12-05T09:07:09.620Z,23.80
2022-12-05T09:08:09.666Z,22.00
2022-12-05T09:09:09.586Z,22.40
2022-12-05T09:10:09.620Z,23.90
2022-12-05T09:11:09.581Z,23.20
2022-12-05T09:12:09.698Z,22.30
2022-12-05T09:13:09.634Z,24.70
2022-12-05T09:14:09.565Z,24.90
2022-12-05T09:15:09.539Z,24.30
2022-12-05T09:16:09.830Z,22.90
2022-12-05T09:17:09.517Z,22.50
2022-12-05T09:18:10.011Z,23.60
2022-12-05T09:19:09.486Z,25.60
2022-12-05T09:20:09.476Z,23.40
2022-12-05T09:21:09.572Z,25.00
2022-12-05T09:22:09.465Z,24.70
2022-12-05T09:23:14.448Z,25.30
2022-12-05T09:24:11.614Z,25.80
2022-12-05T09:25:10.006Z,27.40
2022-12-05T09:26:09.409Z,26.80
2022-12-05T09:27:09.405Z,27.00
2022-12-05T09:28:09.414Z,26.20
2022-12-05T09:29:15.826Z,26.90
2022-12-05T09:30:11.378Z,24.40
2022-12-05T09:31:09.524Z,24.00
2022-12-05T09:32:09.334Z,22.70
2022-12-05T09:33:09.537Z,22.00
2022-12-05T09:34:09.440Z,21.20
2022-12-05T09:35:09.329Z,24.50
2022-12-05T09:36:09.909Z,23.20
2022-12-05T09:37:30.930Z,22.40
2022-12-05T09:38:11.287Z,23.20
2022-12-05T09:39:10.126Z,22.00
2022-12-05T09:40:09.261Z,21.80
2022-12-05T09:41:10.034Z,21.60
2022-12-05T09:42:09.271Z,22.20
2022-12-05T09:43:09.449Z,24.00
2022-12-05T09:44:09.386Z,22.70
2022-12-05T09:45:09.454Z,22.10
2022-12-05T09:46:09.313Z,22.80
2022-12-05T09:47:09.269Z,22.50
2022-12-05T09:48:09.983Z,22.90
2022-12-05T09:49:09.974Z,20.80
2022-12-05T09:50:09.350Z,18.80
2022-12-05T09:51:10.932Z,22.30
2022-12-05T09:52:10.154Z,19.70
2022-12-05T09:53:09.242Z,19.80
2022-12-05T09:54:09.118Z,21.20
2022-12-05T09:55:10.931Z,22.50
2022-12-05T09:56:09.143Z,20.40
2022-12-05T09:57:09.226Z,23.40
2022-12-05T09:58:09.071Z,23.30
2022-12-05T09:59:09.216Z,20.80
2022-12-05T10:00:09.082Z,21.70
2022-12-05T10:01:09.224Z,20.60
2022-12-05T10:02:09.087Z,21.10
2022-12-05T10:03:09.208Z,20.40
2022-12-05T10:04:09.205Z,19.80
2022-12-05T10:05:10.489Z,22.00
2022-12-05T10:06:09.087Z,21.80
2022-12-05T10:07:09.088Z,22.40
2022-12-05T10:08:09.011Z,22.50
2022-12-05T10:09:10.142Z,21.90
2022-12-05T10:10:08.947Z,22.00
2022-12-05T10:11:09.010Z,22.10
2022-12-05T10:12:09.055Z,24.20
2022-12-05T10:13:08.999Z,22.40
2022-12-05T10:14:08.985Z,21.70
2022-12-05T10:15:08.914Z,23.30
2022-12-05T10:16:08.918Z,23.00
2022-12-05T10:17:09.011Z,23.70
2022-12-05T10:18:09.015Z,24.40
2022-12-05T10:19:09.012Z,22.00
2022-12-05T10:20:08.892Z,21.30
2022-12-05T10:21:08.916Z,21.10
2022-12-05T10:22:08.836Z,21.80
2022-12-05T10:23:18.767Z,22.40
2022-12-05T10:24:09.852Z,23.00
2022-12-05T10:25:08.825Z,21.30
2022-12-05T10:26:08.868Z,21.30
2022-12-05T10:27:08.762Z,22.60
2022-12-05T10:28:08.800Z,21.70
2022-12-05T10:29:08.832Z,21.20
2022-12-05T10:30:08.808Z,22.70
2022-12-05T10:31:08.789Z,23.20
2022-12-05T10:32:10.623Z,21.90
2022-12-05T10:33:09.792Z,21.30
2022-12-05T10:34:10.577Z,22.50
2022-12-05T10:35:08.708Z,22.10
2022-12-05T10:36:08.787Z,22.10
2022-12-05T10:37:08.660Z,22.70
2022-12-05T10:38:08.700Z,23.40
2022-12-05T10:39:11.563Z,24.10
2022-12-05T10:40:09.769Z,25.10
2022-12-05T10:41:08.709Z,24.70
2022-12-05T10:42:09.468Z,23.80
2022-12-05T10:43:08.597Z,25.30
2022-12-05T10:44:08.675Z,27.70
2022-12-05T10:45:08.673Z,28.60
2022-12-05T10:46:12.737Z,31.30
2022-12-05T10:47:11.612Z,28.60
2022-12-05T10:48:08.713Z,30.10
2022-12-05T10:49:08.538Z,33.70
2022-12-05T10:50:08.528Z,33.70
2022-12-05T10:51:08.709Z,31.50
2022-12-05T10:52:08.561Z,32.90
2022-12-05T10:53:08.593Z,35.60
2022-12-05T10:54:08.558Z,48.80
2022-12-05T10:55:08.540Z,39.50
2022-12-05T10:56:29.720Z,37.60
2022-12-05T10:57:10.463Z,34.80
2022-12-05T10:58:11.459Z,39.90
2022-12-05T10:59:10.505Z,39.50
2022-12-05T11:00:08.538Z,34.00
2022-12-05T11:01:08.493Z,51.60
2022-12-05T11:02:08.963Z,38.70
2022-12-05T11:03:09.402Z,52.70
2022-12-05T11:04:13.727Z,37.00
2022-12-05T11:05:09.549Z,38.70
2022-12-05T11:06:08.586Z,40.30
2022-12-05T11:07:08.521Z,41.20
2022-12-05T11:08:08.480Z,42.80
2022-12-05T11:09:08.339Z,52.90
2022-12-05T11:10:08.346Z,45.40
2022-12-05T11:11:14.877Z,40.10
2022-12-05T11:12:08.608Z,39.80
2022-12-05T11:13:09.018Z,42.50
2022-12-05T11:14:08.375Z,54.90
2022-12-05T11:15:08.255Z,44.10
2022-12-05T11:16:08.404Z,44.20
2022-12-05T11:17:08.245Z,43.80
2022-12-05T11:18:08.919Z,45.50
2022-12-05T11:19:08.537Z,47.30
2022-12-05T11:20:08.219Z,42.30
2022-12-05T11:21:08.402Z,47.30
2022-12-05T11:22:09.108Z,53.20
2022-12-05T11:23:08.295Z,40.40
2022-12-05T11:24:08.980Z,51.50
2022-12-05T11:25:08.259Z,48.80
2022-12-05T11:26:08.972Z,45.00
2022-12-05T11:27:08.236Z,43.00
2022-12-05T11:28:08.268Z,44.10
2022-12-05T11:29:08.206Z,45.30
2022-12-05T11:30:08.302Z,41.40
2022-12-05T11:31:08.158Z,47.60
2022-12-05T11:32:08.418Z,41.20
2022-12-05T11:33:08.176Z,39.70
2022-12-05T11:34:08.307Z,40.50
2022-12-05T11:35:08.101Z,51.90
2022-12-05T11:36:08.315Z,40.10
2022-12-05T11:37:08.174Z,43.00
2022-12-05T11:38:08.283Z,55.00
2022-12-05T11:39:08.076Z,42.10
2022-12-05T11:40:08.995Z,36.70
2022-12-05T11:41:08.051Z,40.40
2022-12-05T11:42:08.075Z,37.90
2022-12-05T11:43:07.999Z,35.80
2022-12-05T11:44:08.177Z,35.50
2022-12-05T11:45:08.032Z,34.20
2022-12-05T11:46:08.009Z,45.40
2022-12-05T11:47:08.028Z,35.70
2022-12-05T11:48:07.968Z,34.30
2022-12-05T11:49:07.967Z,36.40
2022-12-05T11:50:07.900Z,35.50
2022-12-05T11:51:07.888Z,47.20
2022-12-05T11:52:07.845Z,38.30
2022-12-05T11:53:07.917Z,37.60
2022-12-05T11:54:07.856Z,33.40
2022-12-05T11:55:07.912Z,33.80
2022-12-05T11:56:07.819Z,34.80
2022-12-05T11:57:07.884Z,33.20
2022-12-05T11:58:07.788Z,37.80
2022-12-05T11:59:07.792Z,33.80
2022-12-05T12:00:07.795Z,33.90
2022-12-05T12:01:08.110Z,38.70
2022-12-05T12:02:07.817Z,35.90
2022-12-05T12:03:07.895Z,47.60
2022-12-05T12:04:07.718Z,35.10
2022-12-05T12:05:07.794Z,45.70
2022-12-05T12:06:07.776Z,40.30
2022-12-05T12:07:07.768Z,37.40
2022-12-05T12:08:07.795Z,35.00
2022-12-05T12:09:07.674Z,36.30
2022-12-05T12:10:09.833Z,33.80
2022-12-05T12:11:08.685Z,34.10
2022-12-05T12:12:07.670Z,36.10
2022-12-05T12:13:07.672Z,39.90
2022-12-05T12:14:07.656Z,43.80
2022-12-05T12:15:07.654Z,38.90
2022-12-05T12:16:08.762Z,36.90
2022-12-05T12:17:08.642Z,31.10
2022-12-05T12:18:07.594Z,33.40
2022-12-05T12:19:07.613Z,33.10
2022-12-05T12:20:07.586Z,35.60
2022-12-05T12:21:07.542Z,32.30
2022-12-05T12:22:07.574Z,33.10
2022-12-05T12:23:07.545Z,29.50
2022-12-05T12:24:07.515Z,36.90
2022-12-05T12:25:08.043Z,31.20
2022-12-05T12:26:07.543Z,35.90
2022-12-05T12:27:07.517Z,33.90
2022-12-05T12:28:07.561Z,34.10
2022-12-05T12:29:08.531Z,35.30
2022-12-05T12:30:07.552Z,40.40
2022-12-05T12:31:07.460Z,46.10
2022-12-05T12:32:07.462Z,47.50
2022-12-05T12:33:08.878Z,48.10
2022-12-05T12:34:07.418Z,39.00
2022-12-05T12:35:07.446Z,35.80
2022-12-05T12:36:07.447Z,36.80
2022-12-05T12:37:07.579Z,35.60
2022-12-05T12:38:07.349Z,33.90
2022-12-05T12:39:07.354Z,34.90
2022-12-05T12:40:07.377Z,36.20
2022-12-05T12:41:07.399Z,35.00
2022-12-05T12:42:07.321Z,33.40
2022-12-05T12:43:07.332Z,32.70
2022-12-05T12:44:07.310Z,31.20
2022-12-05T12:45:07.356Z,30.40
2022-12-05T12:46:11.203Z,30.80
2022-12-05T12:47:08.323Z,31.20
2022-12-05T12:48:07.936Z,31.40
2022-12-05T12:49:07.242Z,29.20
2022-12-05T12:50:07.257Z,31.50
2022-12-05T12:51:07.291Z,31.60
2022-12-05T12:52:07.244Z,30.40